createdAt,value
2017-11-27T00:00:02.923Z,7.7
2017-11-27T00:01:02.917Z,7.66
2017-11-27T00:02:03.202Z,7.72
2017-11-27T00:03:02.999Z,7.67
2017-11-27T00:04:03.003Z,7.72
2017-11-27T00:05:02.601Z,7.72
2017-11-27T00:06:03.158Z,7.66
2017-11-27T00:07:03.281Z,7.63
2017-11-27T00:08:03.049Z,7.7
2017-11-27T00:09:03.019Z,7.76
2017-11-27T00:10:03.332Z,7.7
2017-11-27T00:11:03.058Z,7.69
2017-11-27T00:12:03.281Z,7.73
2017-11-27T00:13:03.358Z,7.75
2017-11-27T00:14:03.352Z,7.69
2017-11-27T00:15:03.108Z,7.76
2017-11-27T00:16:03.135Z,7.69
2017-11-27T00:17:03.135Z,7.75
2017-11-27T00:18:03.418Z,7.69
2017-11-27T00:19:03.432Z,7.75
2017-11-27T00:20:03.186Z,7.76
2017-11-27T00:21:02.908Z,7.76
2017-11-27T00:22:02.961Z,7.73
2017-11-27T00:23:03.480Z,7.7
2017-11-27T00:24:03.235Z,7.76
2017-11-27T00:25:03.433Z,7.72
2017-11-27T00:26:03.423Z,7.66
2017-11-27T00:27:03.420Z,7.76
2017-11-27T00:28:03.430Z,7.76
2017-11-27T00:29:03.172Z,7.61
2017-11-27T00:30:03.519Z,7.7
2017-11-27T00:31:03.283Z,7.67
2017-11-27T00:32:03.585Z,7.75
2017-11-27T00:33:03.053Z,7.73
2017-11-27T00:34:03.361Z,7.72
2017-11-27T00:35:03.378Z,7.67
2017-11-27T00:36:03.642Z,7.61
2017-11-27T00:37:03.110Z,7.69
2017-11-27T00:38:03.412Z,7.66
2017-11-27T00:39:03.321Z,7.61
2017-11-27T00:40:03.315Z,7.67
2017-11-27T00:41:03.699Z,7.72
2017-11-27T00:42:03.741Z,7.7
2017-11-27T00:43:03.693Z,7.66
2017-11-27T00:44:03.497Z,7.56
2017-11-27T00:45:03.423Z,7.66
2017-11-27T00:46:03.138Z,7.61
2017-11-27T00:47:03.684Z,7.69
2017-11-27T00:48:03.678Z,7.63
2017-11-27T00:49:03.550Z,7.67
2017-11-27T00:50:03.569Z,7.66
2017-11-27T00:51:03.849Z,7.67
2017-11-27T00:52:03.848Z,7.69
2017-11-27T00:53:03.877Z,7.69
2017-11-27T00:54:03.348Z,7.67
2017-11-27T00:55:03.880Z,7.67
2017-11-27T00:56:03.915Z,7.66
2017-11-27T00:57:03.630Z,7.61
2017-11-27T00:58:03.599Z,7.61
2017-11-27T00:59:03.937Z,7.66
2017-11-27T01:00:03.892Z,7.66
2017-11-27T01:01:03.965Z,7.57
2017-11-27T01:02:03.704Z,7.58
2017-11-27T01:03:03.445Z,7.58
2017-11-27T01:04:03.660Z,7.6
2017-11-27T01:05:03.740Z,7.61
2017-11-27T01:06:03.914Z,7.61
2017-11-27T01:07:03.652Z,7.66
2017-11-27T01:08:03.929Z,7.57
2017-11-27T01:09:03.962Z,7.63
2017-11-27T01:10:03.962Z,7.6
2017-11-27T01:11:03.973Z,7.69
2017-11-27T01:12:04.006Z,7.6
2017-11-27T01:13:04.000Z,7.66
2017-11-27T01:14:04.031Z,7.69
2017-11-27T01:15:03.749Z,7.69
2017-11-27T01:16:03.835Z,7.6
2017-11-27T01:17:03.505Z,7.67
2017-11-27T01:18:03.791Z,7.67
2017-11-27T01:19:03.806Z,7.63
2017-11-27T01:20:04.089Z,7.73
2017-11-27T01:21:04.098Z,7.73
2017-11-27T01:22:04.152Z,7.69
2017-11-27T01:23:04.150Z,7.73
2017-11-27T01:24:04.142Z,7.76
2017-11-27T01:25:04.149Z,7.69
2017-11-27T01:26:04.160Z,7.63
2017-11-27T01:27:04.174Z,7.66
2017-11-27T01:28:03.911Z,7.72
2017-11-27T01:29:04.196Z,7.63
2017-11-27T01:30:04.212Z,7.76
2017-11-27T01:31:04.231Z,7.73
2017-11-27T01:32:04.236Z,7.67
2017-11-27T01:33:04.252Z,7.6
2017-11-27T01:34:04.261Z,7.58
2017-11-27T01:35:04.007Z,7.67
2017-11-27T01:36:04.289Z,7.6
2017-11-27T01:37:04.297Z,7.72
2017-11-27T01:38:04.331Z,7.7
2017-11-27T01:39:04.328Z,7.73
2017-11-27T01:40:04.349Z,7.63
2017-11-27T01:41:04.345Z,7.69
2017-11-27T01:42:04.359Z,7.7
2017-11-27T01:43:03.831Z,7.67
2017-11-27T01:44:04.406Z,7.7
2017-11-27T01:45:04.399Z,7.63
2017-11-27T01:46:03.873Z,7.69
2017-11-27T01:47:04.429Z,7.69
2017-11-27T01:48:04.164Z,7.67
2017-11-27T01:49:04.449Z,7.66
2017-11-27T01:50:04.461Z,7.6
2017-11-27T01:51:04.201Z,7.61
2017-11-27T01:52:04.494Z,7.61
2017-11-27T01:53:04.240Z,7.6
2017-11-27T01:54:04.505Z,7.6
2017-11-27T01:55:04.533Z,7.45
2017-11-27T01:56:04.540Z,7.53
2017-11-27T01:57:04.549Z,7.51
2017-11-27T01:58:04.296Z,7.53
2017-11-27T01:59:04.314Z,7.5
2017-11-27T02:00:04.582Z,7.5
2017-11-27T02:01:04.602Z,7.48
2017-11-27T02:02:04.614Z,7.48
2017-11-27T02:03:04.631Z,7.48
2017-11-27T02:04:04.092Z,7.47
2017-11-27T02:05:04.654Z,7.42
2017-11-27T02:06:04.662Z,7.43
2017-11-27T02:07:04.674Z,7.42
2017-11-27T02:08:04.692Z,7.36
2017-11-27T02:09:04.698Z,7.43
2017-11-27T02:10:04.713Z,7.47
2017-11-27T02:11:04.454Z,7.35
2017-11-27T02:12:04.735Z,7.35
2017-11-27T02:13:04.477Z,7.35
2017-11-27T02:14:04.489Z,7.4
2017-11-27T02:15:04.782Z,7.4
2017-11-27T02:16:04.818Z,7.35
2017-11-27T02:17:04.792Z,7.36
2017-11-27T02:18:04.815Z,7.31
2017-11-27T02:19:04.553Z,7.39
2017-11-27T02:20:04.569Z,7.31
2017-11-27T02:21:04.575Z,7.32
2017-11-27T02:22:04.601Z,7.35
2017-11-27T02:23:04.909Z,7.24
2017-11-27T02:24:04.894Z,7.36
2017-11-27T02:25:04.893Z,7.25
2017-11-27T02:26:04.639Z,7.33
2017-11-27T02:27:04.654Z,7.33
2017-11-27T02:28:04.936Z,7.36
2017-11-27T02:29:04.406Z,7.29
2017-11-27T02:30:05.108Z,7.31
2017-11-27T02:31:04.980Z,7.32
2017-11-27T02:32:05.002Z,7.29
2017-11-27T02:33:04.994Z,7.17
2017-11-27T02:34:04.747Z,7.2
2017-11-27T02:35:05.028Z,7.23
2017-11-27T02:36:04.777Z,7.24
2017-11-27T02:37:05.052Z,7.2
2017-11-27T02:38:05.115Z,7.11
2017-11-27T02:39:04.823Z,7.13
2017-11-27T02:40:05.113Z,7.15
2017-11-27T02:41:04.831Z,7.18
2017-11-27T02:42:05.122Z,7.15
2017-11-27T02:43:05.122Z,7.2
2017-11-27T02:44:04.876Z,7.17
2017-11-27T02:45:05.166Z,7.18
2017-11-27T02:46:05.184Z,7.18
2017-11-27T02:47:05.169Z,7.15
2017-11-27T02:48:05.188Z,7.18
2017-11-27T02:49:04.926Z,7.17
2017-11-27T02:50:05.226Z,7.18
2017-11-27T02:51:05.225Z,7.18
2017-11-27T02:52:05.231Z,7.1
2017-11-27T02:53:04.973Z,7.17
2017-11-27T02:54:04.989Z,7.2
2017-11-27T02:55:04.727Z,7.15
2017-11-27T02:56:05.291Z,7.15
2017-11-27T02:57:05.304Z,7.2
2017-11-27T02:58:05.318Z,7.2
2017-11-27T02:59:05.336Z,7.17
2017-11-27T03:00:05.062Z,7.15
2017-11-27T03:01:05.342Z,7.14
2017-11-27T03:02:05.370Z,7.15
2017-11-27T03:03:05.140Z,7.24
2017-11-27T03:04:05.128Z,7.17
2017-11-27T03:05:05.392Z,7.17
2017-11-27T03:06:05.143Z,7.17
2017-11-27T03:07:05.419Z,7.15
2017-11-27T03:08:05.554Z,7.23
2017-11-27T03:09:05.170Z,7.2
2017-11-27T03:10:05.185Z,7.21
2017-11-27T03:11:05.204Z,7.2
2017-11-27T03:12:05.496Z,7.17
2017-11-27T03:13:05.496Z,7.2
2017-11-27T03:14:05.268Z,7.21
2017-11-27T03:15:05.522Z,7.2
2017-11-27T03:16:05.530Z,7.2
2017-11-27T03:17:05.560Z,7.1
2017-11-27T03:18:05.308Z,7.15
2017-11-27T03:19:05.026Z,7.23
2017-11-27T03:20:05.335Z,7.17
2017-11-27T03:21:05.603Z,7.2
2017-11-27T03:22:05.616Z,7.1
2017-11-27T03:23:05.612Z,7.18
2017-11-27T03:24:05.630Z,7.13
2017-11-27T03:25:05.365Z,7.15
2017-11-27T03:26:05.673Z,7.2
2017-11-27T03:27:05.665Z,7.18
2017-11-27T03:28:05.418Z,7.23
2017-11-27T03:29:05.425Z,7.14
2017-11-27T03:30:05.716Z,7.15
2017-11-27T03:31:05.746Z,7.21
2017-11-27T03:32:05.470Z,7.18
2017-11-27T03:33:05.736Z,7.21
2017-11-27T03:34:05.501Z,7.21
2017-11-27T03:35:05.771Z,7.17
2017-11-27T03:36:05.790Z,7.18
2017-11-27T03:37:05.781Z,7.14
2017-11-27T03:38:05.797Z,7.23
2017-11-27T03:39:05.541Z,7.1
2017-11-27T03:40:05.291Z,7.07
2017-11-27T03:41:05.833Z,7.03
2017-11-27T03:42:05.603Z,6.99
2017-11-27T03:43:05.586Z,7.05
2017-11-27T03:44:05.865Z,7.06
2017-11-27T03:45:05.881Z,7.03
2017-11-27T03:46:05.895Z,6.99
2017-11-27T03:47:05.907Z,7.05
2017-11-27T03:48:05.656Z,7.03
2017-11-27T03:49:05.930Z,7.02
2017-11-27T03:50:05.421Z,6.92
2017-11-27T03:51:05.953Z,6.89
2017-11-27T03:52:05.968Z,6.92
2017-11-27T03:53:05.971Z,6.89
2017-11-27T03:54:05.725Z,6.87
2017-11-27T03:55:06.019Z,6.88
2017-11-27T03:56:06.038Z,6.96
2017-11-27T03:57:05.487Z,6.93
2017-11-27T03:58:06.053Z,6.95
2017-11-27T03:59:05.513Z,6.96
2017-11-27T04:00:05.537Z,6.96
2017-11-27T04:01:05.806Z,6.95
2017-11-27T04:02:06.113Z,6.96
2017-11-27T04:03:06.099Z,6.88
2017-11-27T04:04:06.135Z,6.84
2017-11-27T04:05:06.124Z,6.88
2017-11-27T04:06:05.862Z,6.87
2017-11-27T04:07:06.171Z,6.89
2017-11-27T04:08:06.165Z,6.85
2017-11-27T04:09:06.178Z,6.92
2017-11-27T04:10:05.666Z,6.89
2017-11-27T04:11:05.927Z,6.85
2017-11-27T04:12:05.946Z,6.85
2017-11-27T04:13:06.261Z,6.81
2017-11-27T04:14:05.973Z,6.84
2017-11-27T04:15:06.290Z,6.79
2017-11-27T04:16:06.259Z,6.84
2017-11-27T04:17:06.276Z,6.81
2017-11-27T04:18:06.283Z,6.85
2017-11-27T04:19:06.288Z,6.82
2017-11-27T04:20:06.301Z,6.85
2017-11-27T04:21:05.782Z,6.77
2017-11-27T04:22:06.058Z,6.77
2017-11-27T04:23:06.082Z,6.84
2017-11-27T04:24:06.083Z,6.87
2017-11-27T04:25:06.366Z,6.81
2017-11-27T04:26:06.126Z,6.84
2017-11-27T04:27:06.116Z,6.82
2017-11-27T04:28:06.440Z,6.78
2017-11-27T04:29:06.440Z,6.72
2017-11-27T04:30:06.442Z,6.79
2017-11-27T04:31:06.448Z,6.77
2017-11-27T04:32:06.453Z,6.78
2017-11-27T04:33:06.460Z,6.74
2017-11-27T04:34:06.471Z,6.77
2017-11-27T04:35:06.512Z,6.78
2017-11-27T04:36:05.957Z,6.75
2017-11-27T04:37:06.241Z,6.72
2017-11-27T04:38:06.255Z,6.75
2017-11-27T04:39:06.530Z,6.7
2017-11-27T04:40:06.564Z,6.79
2017-11-27T04:41:06.569Z,6.81
2017-11-27T04:42:06.582Z,6.63
2017-11-27T04:43:06.587Z,6.74
2017-11-27T04:44:06.597Z,6.7
2017-11-27T04:45:06.609Z,6.7
2017-11-27T04:46:06.344Z,6.63
2017-11-27T04:47:06.644Z,6.63
2017-11-27T04:48:06.370Z,6.67
2017-11-27T04:49:06.653Z,6.66
2017-11-27T04:50:06.404Z,6.62
2017-11-27T04:51:06.678Z,6.6
2017-11-27T04:52:06.699Z,6.7
2017-11-27T04:53:06.724Z,6.64
2017-11-27T04:54:06.714Z,6.72
2017-11-27T04:55:06.746Z,6.66
2017-11-27T04:56:06.740Z,6.72
2017-11-27T04:57:06.741Z,6.66
2017-11-27T04:58:06.766Z,6.62
2017-11-27T04:59:06.777Z,6.66
2017-11-27T05:00:06.813Z,6.6
2017-11-27T05:01:06.536Z,6.72
2017-11-27T05:02:06.812Z,6.62
2017-11-27T05:03:06.553Z,6.59
2017-11-27T05:04:06.837Z,6.74
2017-11-27T05:05:06.844Z,6.64
2017-11-27T05:06:06.861Z,6.57
2017-11-27T05:07:06.602Z,6.57
2017-11-27T05:08:06.611Z,6.52
2017-11-27T05:09:06.887Z,6.59
2017-11-27T05:10:06.899Z,6.63
2017-11-27T05:11:06.645Z,6.56
2017-11-27T05:12:06.927Z,6.49
2017-11-27T05:13:06.672Z,6.57
2017-11-27T05:14:06.696Z,6.56
2017-11-27T05:15:06.966Z,6.59
2017-11-27T05:16:06.700Z,6.48
2017-11-27T05:17:06.457Z,6.6
2017-11-27T05:18:06.733Z,6.51
2017-11-27T05:19:07.038Z,6.48
2017-11-27T05:20:07.029Z,6.63
2017-11-27T05:21:07.050Z,6.59
2017-11-27T05:22:07.040Z,6.57
2017-11-27T05:23:07.056Z,6.6
2017-11-27T05:24:07.085Z,6.57
2017-11-27T05:25:06.820Z,6.57
2017-11-27T05:26:07.086Z,6.6
2017-11-27T05:27:06.836Z,6.63
2017-11-27T05:28:06.840Z,6.6
2017-11-27T05:29:07.135Z,6.51
2017-11-27T05:30:07.141Z,6.54
2017-11-27T05:31:07.154Z,6.52
2017-11-27T05:32:07.178Z,6.54
2017-11-27T05:33:07.328Z,6.46
2017-11-27T05:34:07.185Z,6.56
2017-11-27T05:35:06.929Z,6.56
2017-11-27T05:36:06.941Z,6.54
2017-11-27T05:37:06.953Z,6.52
2017-11-27T05:38:07.242Z,6.6
2017-11-27T05:39:07.252Z,6.52
2017-11-27T05:40:07.258Z,6.54
2017-11-27T05:41:07.273Z,6.57
2017-11-27T05:42:07.013Z,6.57
2017-11-27T05:43:07.023Z,6.59
2017-11-27T05:44:07.304Z,6.56
2017-11-27T05:45:07.047Z,6.48
2017-11-27T05:46:07.327Z,6.54
2017-11-27T05:47:07.347Z,6.52
2017-11-27T05:48:07.363Z,6.59
2017-11-27T05:49:07.360Z,6.57
2017-11-27T05:50:07.113Z,6.52
2017-11-27T05:51:07.389Z,6.59
2017-11-27T05:52:07.394Z,6.54
2017-11-27T05:53:07.138Z,6.52
2017-11-27T05:54:07.430Z,6.59
2017-11-27T05:55:07.444Z,6.62
2017-11-27T05:56:07.175Z,6.56
2017-11-27T05:57:07.461Z,6.54
2017-11-27T05:58:06.932Z,6.57
2017-11-27T05:59:07.482Z,6.56
2017-11-27T06:00:07.236Z,6.56
2017-11-27T06:01:07.231Z,6.59
2017-11-27T06:02:07.513Z,6.54
2017-11-27T06:03:07.257Z,6.57
2017-11-27T06:04:07.274Z,6.57
2017-11-27T06:05:07.276Z,6.52
2017-11-27T06:06:07.567Z,6.52
2017-11-27T06:07:07.579Z,6.54
2017-11-27T06:08:07.578Z,6.57
2017-11-27T06:09:07.328Z,6.52
2017-11-27T06:10:07.606Z,6.52
2017-11-27T06:11:07.615Z,6.57
2017-11-27T06:12:07.642Z,6.49
2017-11-27T06:13:07.644Z,6.57
2017-11-27T06:14:07.384Z,6.52
2017-11-27T06:15:07.396Z,6.57
2017-11-27T06:16:07.416Z,6.48
2017-11-27T06:17:07.689Z,6.51
2017-11-27T06:18:07.695Z,6.48
2017-11-27T06:19:07.709Z,6.51
2017-11-27T06:20:07.781Z,6.48
2017-11-27T06:21:07.461Z,6.51
2017-11-27T06:22:07.760Z,6.49
2017-11-27T06:23:07.771Z,6.45
2017-11-27T06:24:07.769Z,6.49
2017-11-27T06:25:07.797Z,6.45
2017-11-27T06:26:07.793Z,6.46
2017-11-27T06:27:07.532Z,6.42
2017-11-27T06:28:07.822Z,6.51
2017-11-27T06:29:07.570Z,6.49
2017-11-27T06:30:07.839Z,6.49
2017-11-27T06:31:07.855Z,6.35
2017-11-27T06:32:07.871Z,6.51
2017-11-27T06:33:07.598Z,6.46
2017-11-27T06:34:07.344Z,6.46
2017-11-27T06:35:07.913Z,6.33
2017-11-27T06:36:07.908Z,6.44
2017-11-27T06:37:07.916Z,6.33
2017-11-27T06:38:07.932Z,6.39
2017-11-27T06:39:07.947Z,6.38
2017-11-27T06:40:07.964Z,6.36
2017-11-27T06:41:07.695Z,6.36
2017-11-27T06:42:07.991Z,6.39
2017-11-27T06:43:07.723Z,6.36
2017-11-27T06:44:07.731Z,6.3
2017-11-27T06:45:08.011Z,6.33
2017-11-27T06:46:08.036Z,6.36
2017-11-27T06:47:07.500Z,6.36
2017-11-27T06:48:07.776Z,6.33
2017-11-27T06:49:07.789Z,6.41
2017-11-27T06:50:07.802Z,6.35
2017-11-27T06:51:07.815Z,6.35
2017-11-27T06:52:08.141Z,6.31
2017-11-27T06:53:07.619Z,6.33
2017-11-27T06:54:08.119Z,6.33
2017-11-27T06:55:08.150Z,6.31
2017-11-27T06:56:08.167Z,6.33
2017-11-27T06:57:08.155Z,6.33
2017-11-27T06:58:08.170Z,6.26
2017-11-27T06:59:07.914Z,6.28
2017-11-27T07:00:08.183Z,6.3
2017-11-27T07:01:07.930Z,6.33
2017-11-27T07:02:07.937Z,6.31
2017-11-27T07:03:08.226Z,6.27
2017-11-27T07:04:08.248Z,6.27
2017-11-27T07:05:07.977Z,6.3
2017-11-27T07:06:08.261Z,6.31
2017-11-27T07:07:07.998Z,6.28
2017-11-27T07:08:08.012Z,6.26
2017-11-27T07:09:08.022Z,6.31
2017-11-27T07:10:08.299Z,6.24
2017-11-27T07:11:08.044Z,6.26
2017-11-27T07:12:08.326Z,6.22
2017-11-27T07:13:08.342Z,6.33
2017-11-27T07:14:08.099Z,6.28
2017-11-27T07:15:08.270Z,6.19
2017-11-27T07:16:08.103Z,6.24
2017-11-27T07:17:08.387Z,6.22
2017-11-27T07:18:08.400Z,6.22
2017-11-27T07:19:08.415Z,6.31
2017-11-27T07:20:08.152Z,6.31
2017-11-27T07:21:08.430Z,6.24
2017-11-27T07:22:08.442Z,6.3
2017-11-27T07:23:08.456Z,6.33
2017-11-27T07:24:08.462Z,6.31
2017-11-27T07:25:08.230Z,6.36
2017-11-27T07:26:08.219Z,6.33
2017-11-27T07:27:08.235Z,6.36
2017-11-27T07:28:08.241Z,6.33
2017-11-27T07:29:08.522Z,6.31
2017-11-27T07:30:08.534Z,6.45
2017-11-27T07:31:08.549Z,6.38
2017-11-27T07:32:08.577Z,6.46
2017-11-27T07:33:08.570Z,6.54
2017-11-27T07:34:08.579Z,6.48
2017-11-27T07:35:08.604Z,6.49
2017-11-27T07:36:08.605Z,6.51
2017-11-27T07:37:08.646Z,6.51
2017-11-27T07:38:08.361Z,6.44
2017-11-27T07:39:08.366Z,6.54
2017-11-27T07:40:08.383Z,6.52
2017-11-27T07:41:08.665Z,6.54
2017-11-27T07:42:08.675Z,6.51
2017-11-27T07:43:08.788Z,6.54
2017-11-27T07:44:08.699Z,6.57
2017-11-27T07:45:08.787Z,6.57
2017-11-27T07:46:08.731Z,6.56
2017-11-27T07:47:08.879Z,6.59
2017-11-27T07:48:08.478Z,6.6
2017-11-27T07:49:08.772Z,6.59
2017-11-27T07:50:08.777Z,6.63
2017-11-27T07:51:08.774Z,6.62
2017-11-27T07:52:08.784Z,6.62
2017-11-27T07:53:08.796Z,6.62
2017-11-27T07:54:08.812Z,6.64
2017-11-27T07:55:08.552Z,6.57
2017-11-27T07:56:08.840Z,6.57
2017-11-27T07:57:08.873Z,6.69
2017-11-27T07:58:08.584Z,6.62
2017-11-27T07:59:08.605Z,6.66
2017-11-27T08:00:08.887Z,6.57
2017-11-27T08:01:08.906Z,6.62
2017-11-27T08:02:08.635Z,6.59
2017-11-27T08:03:08.923Z,6.57
2017-11-27T08:04:08.928Z,6.64
2017-11-27T08:05:08.946Z,6.56
2017-11-27T08:06:08.955Z,6.62
2017-11-27T08:07:08.961Z,6.6
2017-11-27T08:08:08.711Z,6.6
2017-11-27T08:09:08.992Z,6.62
2017-11-27T08:10:08.992Z,6.52
2017-11-27T08:11:09.014Z,6.6
2017-11-27T08:12:09.032Z,6.74
2017-11-27T08:13:09.031Z,6.72
2017-11-27T08:14:09.044Z,6.64
2017-11-27T08:15:09.055Z,6.62
2017-11-27T08:16:08.802Z,6.62
2017-11-27T08:17:09.081Z,6.62
2017-11-27T08:18:09.092Z,6.66
2017-11-27T08:19:09.112Z,6.6
2017-11-27T08:20:09.120Z,6.78
2017-11-27T08:21:08.867Z,6.69
2017-11-27T08:22:08.877Z,6.66
2017-11-27T08:23:09.158Z,6.64
2017-11-27T08:24:09.161Z,6.63
2017-11-27T08:25:09.175Z,6.66
2017-11-27T08:26:09.199Z,6.69
2017-11-27T08:27:08.662Z,6.64
2017-11-27T08:28:08.932Z,6.66
2017-11-27T08:29:09.219Z,6.66
2017-11-27T08:30:09.231Z,6.69
2017-11-27T08:31:08.976Z,6.67
2017-11-27T08:32:08.988Z,6.84
2017-11-27T08:33:09.271Z,6.67
2017-11-27T08:34:09.009Z,6.69
2017-11-27T08:35:09.293Z,6.75
2017-11-27T08:36:09.313Z,6.7
2017-11-27T08:37:09.315Z,6.78
2017-11-27T08:38:09.326Z,6.77
2017-11-27T08:39:09.077Z,6.78
2017-11-27T08:40:09.372Z,6.85
2017-11-27T08:41:09.357Z,6.77
2017-11-27T08:42:09.367Z,6.84
2017-11-27T08:43:09.386Z,6.84
2017-11-27T08:44:08.856Z,6.89
2017-11-27T08:45:09.141Z,6.89
2017-11-27T08:46:09.421Z,6.88
2017-11-27T08:47:09.430Z,6.93
2017-11-27T08:48:09.451Z,6.88
2017-11-27T08:49:09.181Z,6.95
2017-11-27T08:50:09.477Z,6.93
2017-11-27T08:51:09.487Z,6.89
2017-11-27T08:52:08.946Z,6.92
2017-11-27T08:53:09.234Z,6.92
2017-11-27T08:54:09.245Z,7.06
2017-11-27T08:55:09.256Z,7.03
2017-11-27T08:56:09.533Z,7.05
2017-11-27T08:57:09.291Z,7.03
2017-11-27T08:58:09.566Z,7.03
2017-11-27T08:59:09.312Z,7
2017-11-27T09:00:09.590Z,7
2017-11-27T09:01:09.324Z,7.03
2017-11-27T09:02:09.615Z,7.03
2017-11-27T09:03:09.618Z,7.05
2017-11-27T09:04:09.365Z,7.06
2017-11-27T09:05:09.515Z,7.14
2017-11-27T09:06:09.381Z,7.13
2017-11-27T09:07:09.666Z,7.13
2017-11-27T09:08:09.682Z,7.2
2017-11-27T09:09:09.704Z,7.15
2017-11-27T09:10:09.730Z,7.13
2017-11-27T09:11:09.180Z,7.15
2017-11-27T09:12:09.727Z,7.21
2017-11-27T09:13:09.746Z,7.15
2017-11-27T09:14:09.745Z,7.18
2017-11-27T09:15:09.776Z,7.21
2017-11-27T09:16:09.770Z,7.25
2017-11-27T09:17:09.799Z,7.24
2017-11-27T09:18:09.805Z,7.29
2017-11-27T09:19:09.537Z,7.29
2017-11-27T09:20:09.824Z,7.36
2017-11-27T09:21:09.567Z,7.35
2017-11-27T09:22:09.301Z,7.33
2017-11-27T09:23:09.320Z,7.31
2017-11-27T09:24:09.593Z,7.32
2017-11-27T09:25:09.878Z,7.4
2017-11-27T09:26:09.889Z,7.36
2017-11-27T09:27:09.630Z,7.4
2017-11-27T09:28:09.915Z,7.43
2017-11-27T09:29:09.933Z,7.47
2017-11-27T09:30:09.681Z,7.48
2017-11-27T09:31:09.959Z,7.47
2017-11-27T09:32:09.965Z,7.43
2017-11-27T09:33:09.717Z,7.43
2017-11-27T09:34:09.988Z,7.39
2017-11-27T09:35:10.005Z,7.39
2017-11-27T09:36:10.021Z,7.45
2017-11-27T09:37:10.032Z,7.45
2017-11-27T09:38:10.037Z,7.51
2017-11-27T09:39:09.784Z,7.51
2017-11-27T09:40:09.786Z,7.54
2017-11-27T09:41:10.072Z,7.53
2017-11-27T09:42:10.082Z,7.51
2017-11-27T09:43:09.828Z,7.51
2017-11-27T09:44:10.143Z,7.47
2017-11-27T09:45:10.119Z,7.57
2017-11-27T09:46:10.148Z,7.57
2017-11-27T09:47:10.148Z,7.69
2017-11-27T09:48:10.165Z,7.63
2017-11-27T09:49:10.175Z,7.63
2017-11-27T09:50:09.915Z,7.75
2017-11-27T09:51:10.201Z,7.73
2017-11-27T09:52:09.943Z,7.73
2017-11-27T09:53:10.224Z,7.67
2017-11-27T09:54:09.967Z,7.67
2017-11-27T09:55:10.247Z,7.72
2017-11-27T09:56:10.251Z,7.82
2017-11-27T09:57:10.272Z,7.82
2017-11-27T09:58:10.275Z,7.79
2017-11-27T09:59:09.750Z,7.75
2017-11-27T10:00:10.308Z,7.76
2017-11-27T10:01:10.325Z,7.83
2017-11-27T10:02:10.055Z,7.82
2017-11-27T10:03:10.338Z,7.77
2017-11-27T10:04:10.357Z,7.82
2017-11-27T10:05:10.369Z,7.82
2017-11-27T10:06:10.374Z,7.82
2017-11-27T10:07:10.395Z,7.79
2017-11-27T10:08:10.403Z,7.75
2017-11-27T10:09:10.416Z,7.76
2017-11-27T10:10:10.155Z,7.75
2017-11-27T10:11:10.165Z,7.69
2017-11-27T10:12:10.458Z,7.7
2017-11-27T10:13:10.458Z,7.76
2017-11-27T10:14:10.480Z,7.73
2017-11-27T10:15:10.503Z,7.7
2017-11-27T10:16:10.243Z,7.76
2017-11-27T10:17:10.514Z,7.72
2017-11-27T10:18:10.518Z,7.75
2017-11-27T10:19:10.534Z,7.76
2017-11-27T10:20:10.603Z,7.67
2017-11-27T10:21:10.577Z,7.79
2017-11-27T10:22:10.601Z,7.8
2017-11-27T10:23:10.318Z,7.82
2017-11-27T10:24:10.604Z,7.79
2017-11-27T10:25:10.342Z,7.77
2017-11-27T10:26:10.620Z,7.77
2017-11-27T10:27:10.369Z,7.83
2017-11-27T10:28:10.384Z,7.77
2017-11-27T10:29:10.695Z,7.79
2017-11-27T10:30:10.423Z,7.8
2017-11-27T10:31:10.693Z,7.8
2017-11-27T10:32:10.704Z,7.83
2017-11-27T10:33:10.718Z,7.83
2017-11-27T10:34:10.733Z,7.93
2017-11-27T10:35:10.750Z,7.91
2017-11-27T10:36:10.742Z,7.9
2017-11-27T10:37:10.776Z,7.93
2017-11-27T10:38:10.771Z,7.98
2017-11-27T10:39:10.516Z,8.03
2017-11-27T10:40:10.534Z,8.01
2017-11-27T10:41:10.807Z,8.03
2017-11-27T10:42:10.550Z,8
2017-11-27T10:43:10.833Z,7.98
2017-11-27T10:44:10.854Z,8.06
2017-11-27T10:45:10.593Z,8.1
2017-11-27T10:46:10.605Z,8.09
2017-11-27T10:47:10.896Z,8.12
2017-11-27T10:48:10.631Z,8.03
2017-11-27T10:49:10.914Z,8.1
2017-11-27T10:50:10.659Z,8.12
2017-11-27T10:51:10.940Z,8.16
2017-11-27T10:52:10.996Z,8.16
2017-11-27T10:53:10.956Z,8.13
2017-11-27T10:54:10.992Z,8.2
2017-11-27T10:55:10.987Z,8.2
2017-11-27T10:56:10.999Z,8.26
2017-11-27T10:57:11.018Z,8.24
2017-11-27T10:58:10.756Z,8.24
2017-11-27T10:59:11.036Z,8.28
2017-11-27T11:00:10.776Z,8.34
2017-11-27T11:01:11.057Z,8.37
2017-11-27T11:02:11.075Z,8.36
2017-11-27T11:03:11.077Z,8.36
2017-11-27T11:04:11.097Z,8.34
2017-11-27T11:05:10.841Z,8.46
2017-11-27T11:06:11.121Z,8.42
2017-11-27T11:07:10.908Z,8.48
2017-11-27T11:08:10.883Z,8.48
2017-11-27T11:09:10.889Z,8.42
2017-11-27T11:10:11.205Z,8.49
2017-11-27T11:11:11.191Z,8.42
2017-11-27T11:12:10.926Z,8.53
2017-11-27T11:13:11.212Z,8.51
2017-11-27T11:14:11.237Z,8.52
2017-11-27T11:15:11.249Z,8.52
2017-11-27T11:16:11.254Z,8.55
2017-11-27T11:17:11.260Z,8.52
2017-11-27T11:18:11.277Z,8.56
2017-11-27T11:19:11.292Z,8.48
2017-11-27T11:20:11.027Z,8.55
2017-11-27T11:21:11.310Z,8.67
2017-11-27T11:22:11.058Z,8.56
2017-11-27T11:23:11.340Z,8.58
2017-11-27T11:24:11.352Z,8.64
2017-11-27T11:25:11.375Z,8.61
2017-11-27T11:26:11.385Z,8.58
2017-11-27T11:27:11.136Z,8.64
2017-11-27T11:28:11.418Z,8.58
2017-11-27T11:29:11.425Z,8.7
2017-11-27T11:30:11.446Z,8.58
2017-11-27T11:31:11.440Z,8.55
2017-11-27T11:32:10.916Z,8.58
2017-11-27T11:33:11.199Z,8.58
2017-11-27T11:34:11.478Z,8.6
2017-11-27T11:35:11.222Z,8.51
2017-11-27T11:36:10.966Z,8.56
2017-11-27T11:37:11.538Z,8.6
2017-11-27T11:38:11.269Z,8.51
2017-11-27T11:39:11.553Z,8.52
2017-11-27T11:40:11.285Z,8.52
2017-11-27T11:41:11.570Z,8.55
2017-11-27T11:42:11.041Z,8.55
2017-11-27T11:43:11.056Z,8.52
2017-11-27T11:44:11.348Z,8.55
2017-11-27T11:45:11.621Z,8.51
2017-11-27T11:46:11.642Z,8.52
2017-11-27T11:47:11.651Z,8.56
2017-11-27T11:48:11.673Z,8.6
2017-11-27T11:49:11.683Z,8.63
2017-11-27T11:50:11.415Z,8.64
2017-11-27T11:51:11.701Z,8.6
2017-11-27T11:52:11.444Z,8.53
2017-11-27T11:53:11.745Z,8.61
2017-11-27T11:54:11.499Z,8.58
2017-11-27T11:55:11.768Z,8.63
2017-11-27T11:56:11.773Z,8.56
2017-11-27T11:57:11.785Z,8.64
2017-11-27T11:58:11.550Z,8.66
2017-11-27T11:59:11.806Z,8.55
2017-11-27T12:00:11.549Z,8.61
2017-11-27T12:01:11.846Z,8.61
2017-11-27T12:02:11.572Z,8.6
2017-11-27T12:03:11.859Z,8.6
2017-11-27T12:04:11.873Z,8.58
2017-11-27T12:05:11.883Z,8.63
2017-11-27T12:06:11.926Z,8.66
2017-11-27T12:07:11.923Z,8.56
2017-11-27T12:08:11.666Z,8.67
2017-11-27T12:09:11.938Z,8.64
2017-11-27T12:10:11.695Z,8.58
2017-11-27T12:11:11.690Z,8.64
2017-11-27T12:12:11.982Z,8.67
2017-11-27T12:13:11.990Z,8.61
2017-11-27T12:14:11.464Z,8.66
2017-11-27T12:15:12.041Z,8.64
2017-11-27T12:16:11.759Z,8.63
2017-11-27T12:17:11.775Z,8.71
2017-11-27T12:18:11.513Z,8.7
2017-11-27T12:19:11.808Z,8.7
2017-11-27T12:20:12.077Z,8.71
2017-11-27T12:21:12.093Z,8.67
2017-11-27T12:22:11.839Z,8.67
2017-11-27T12:23:12.118Z,8.66
2017-11-27T12:24:11.862Z,8.7
2017-11-27T12:25:12.185Z,8.73
2017-11-27T12:26:12.176Z,8.82
2017-11-27T12:27:12.185Z,8.79
2017-11-27T12:28:11.931Z,8.74
2017-11-27T12:29:12.193Z,8.76
2017-11-27T12:30:11.939Z,8.76
2017-11-27T12:31:12.238Z,8.78
2017-11-27T12:32:12.239Z,8.78
2017-11-27T12:33:12.243Z,8.79
2017-11-27T12:34:11.996Z,8.74
2017-11-27T12:35:12.003Z,8.79
2017-11-27T12:36:12.326Z,8.81
2017-11-27T12:37:12.036Z,8.73
2017-11-27T12:38:12.325Z,8.81
2017-11-27T12:39:12.341Z,8.82
2017-11-27T12:40:12.083Z,8.76
2017-11-27T12:41:12.364Z,8.78
2017-11-27T12:42:12.098Z,8.78
2017-11-27T12:43:12.115Z,8.78
2017-11-27T12:44:12.405Z,8.76
2017-11-27T12:45:12.152Z,8.7
2017-11-27T12:46:12.155Z,8.76
2017-11-27T12:47:12.439Z,8.69
2017-11-27T12:48:12.443Z,8.71
2017-11-27T12:49:12.467Z,8.69
2017-11-27T12:50:12.478Z,8.66
2017-11-27T12:51:12.497Z,8.66
2017-11-27T12:52:12.505Z,8.7
2017-11-27T12:53:12.517Z,8.74
2017-11-27T12:54:12.266Z,8.7
2017-11-27T12:55:12.279Z,8.7
2017-11-27T12:56:12.289Z,8.76
2017-11-27T12:57:12.571Z,8.67
2017-11-27T12:58:12.625Z,8.71
2017-11-27T12:59:12.627Z,8.7
2017-11-27T13:00:12.344Z,8.67
2017-11-27T13:01:12.358Z,8.64
2017-11-27T13:02:12.364Z,8.7
2017-11-27T13:03:12.112Z,8.69
2017-11-27T13:04:12.666Z,8.63
2017-11-27T13:05:12.724Z,8.7
2017-11-27T13:06:12.418Z,8.67
2017-11-27T13:07:12.693Z,8.67
2017-11-27T13:08:12.440Z,8.6
2017-11-27T13:09:12.460Z,8.67
2017-11-27T13:10:12.203Z,8.63
2017-11-27T13:11:12.486Z,8.67
2017-11-27T13:12:12.770Z,8.66
2017-11-27T13:13:12.512Z,8.61
2017-11-27T13:14:12.786Z,8.55
2017-11-27T13:15:12.537Z,8.67
2017-11-27T13:16:12.831Z,8.63
2017-11-27T13:17:12.564Z,8.64
2017-11-27T13:18:12.573Z,8.6
2017-11-27T13:19:12.863Z,8.55
2017-11-27T13:20:12.932Z,8.55
2017-11-27T13:21:12.609Z,8.51